Time;durP1;ratioP1;P1;durP2;ratioP2;P2;SDS_P1;SDS_P2;PMS_P1;PMS_P2;Temp;Humidity;BMP_temperature;BMP_pressure;BME280_temperature;BME280_humidity;BME280_pressure;Samples;Min_cycle;Max_cycle;Signal;HPM_P1;HPM_P2
2022/04/07 00:00:20;;;;;;;6.33;4.00;;;9.60;99.90;;;;;;6215912;23;20169;-87
2022/04/07 00:02:47;;;;;;;7.00;3.77;;;9.60;99.90;;;;;;6215951;23;20171;-87
2022/04/07 00:05:14;;;;;;;9.37;4.50;;;9.50;99.90;;;;;;6215986;23;20567;-87
2022/04/07 00:07:41;;;;;;;6.30;3.83;;;9.60;99.90;;;;;;6216173;23;20547;-87
2022/04/07 00:10:08;;;;;;;6.23;4.00;;;9.50;99.90;;;;;;6215908;23;20220;-87
2022/04/07 00:12:37;;;;;;;6.70;3.83;;;9.50;99.90;;;;;;6216035;23;20290;-87
2022/04/07 00:15:06;;;;;;;6.67;4.10;;;9.50;99.90;;;;;;6215267;23;20236;-87
2022/04/07 00:17:33;;;;;;;7.83;3.97;;;9.40;99.90;;;;;;6215692;23;20170;-87
2022/04/07 00:20:00;;;;;;;7.70;4.00;;;9.40;99.90;;;;;;6215886;23;20174;-87
2022/04/07 00:22:37;;;;;;;7.23;4.47;;;9.40;1.00;;;;;;6222305;23;20157;-91
2022/04/07 00:25:11;;;;;;;6.07;4.10;;;9.40;1.00;;;;;;6243122;23;20168;-89
2022/04/07 00:34:04;;;;;;;7.07;3.80;;;9.40;1.00;;;;;;6238047;23;20170;-89
2022/04/07 00:36:38;;;;;;;7.37;3.70;;;9.40;1.00;;;;;;6242937;23;20259;-89
2022/04/07 00:39:12;;;;;;;5.77;3.63;;;9.40;1.00;;;;;;6217117;23;20169;-91
2022/04/07 00:41:52;;;;;;;8.97;4.03;;;9.40;1.00;;;;;;6242410;23;20188;-89
2022/04/07 01:15:31;;;;;;;7.50;4.03;;;9.00;1.00;;;;;;6045420;23;20204;-91
2022/04/07 01:18:46;;;;;;;8.93;4.40;;;8.90;1.00;;;;;;6062276;23;20172;-90
2022/04/07 01:21:16;;;;;;;5.70;3.73;;;8.80;1.00;;;;;;6043436;23;20184;-87
2022/04/07 01:23:52;;;;;;;6.93;4.00;;;8.80;1.00;;;;;;6036563;23;20696;-88
2022/04/07 01:26:21;;;;;;;5.50;4.00;;;8.70;1.00;;;;;;6111968;23;20170;-88
2022/04/07 01:28:49;;;;;;;6.33;4.10;;;8.70;1.00;;;;;;6153221;23;20282;-88
2022/04/07 01:31:16;;;;;;;7.87;4.70;;;8.70;1.00;;;;;;6152654;23;20184;-89
2022/04/07 01:33:44;;;;;;;7.50;4.37;;;8.60;1.00;;;;;;6152641;23;20220;-88
2022/04/07 01:36:44;;;;;;;8.53;4.43;;;8.60;1.00;;;;;;6170016;23;20216;-90
2022/04/07 01:43:25;;;;;;;8.80;4.50;;;8.50;1.00;;;;;;6166602;23;20181;-89
2022/04/07 01:58:50;;;;;;;9.97;4.67;;;8.30;1.00;;;;;;6245228;23;20183;-89
2022/04/07 02:02:13;;;;;;;9.47;3.80;;;8.30;1.00;;;;;;6241371;23;20171;-90
2022/04/07 02:05:03;;;;;;;8.53;4.47;;;8.20;1.00;;;;;;6236806;23;20178;-90
2022/04/07 02:07:57;;;;;;;7.47;4.40;;;8.20;1.00;;;;;;6240667;23;20238;-90
2022/04/07 02:16:14;;;;;;;7.07;4.00;;;8.20;1.00;;;;;;6232210;23;20159;-90
2022/04/07 02:22:09;;;;;;;9.43;5.13;;;8.10;1.00;;;;;;6242169;23;20188;-89
2022/04/07 02:24:50;;;;;;;7.50;4.27;;;8.10;1.00;;;;;;6239915;23;20195;-89
2022/04/07 02:33:30;;;;;;;8.30;4.50;;;8.10;1.00;;;;;;6087526;23;20162;-90
2022/04/07 02:36:11;;;;;;;9.27;4.47;;;8.10;1.00;;;;;;6121142;23;20193;-92
2022/04/07 02:39:15;;;;;;;7.63;4.47;;;8.10;1.00;;;;;;6120840;23;20170;-91
2022/04/07 02:42:00;;;;;;;9.13;5.53;;;8.10;1.00;;;;;;6180282;23;20171;-87
2022/04/07 02:47:17;;;;;;;6.87;4.33;;;8.10;1.00;;;;;;6178720;23;20316;-87
2022/04/07 02:53:31;;;;;;;6.63;3.80;;;8.10;1.00;;;;;;6141192;23;20152;-90
2022/04/07 02:58:50;;;;;;;10.70;4.80;;;8.00;1.00;;;;;;6145045;23;20197;-88
2022/04/07 03:01:17;;;;;;;11.03;4.93;;;8.10;1.00;;;;;;6122544;23;20175;-87
2022/04/07 03:03:44;;;;;;;6.63;4.37;;;8.00;1.00;;;;;;6122601;23;20176;-87
2022/04/07 03:06:11;;;;;;;9.43;4.33;;;8.10;1.00;;;;;;6122514;23;20567;-88
2022/04/07 03:08:38;;;;;;;12.47;4.70;;;8.10;1.00;;;;;;6122632;23;20696;-88
2022/04/07 03:11:09;;;;;;;7.80;4.87;;;8.00;1.00;;;;;;6123566;23;20176;-87
2022/04/07 03:13:37;;;;;;;8.33;5.90;;;8.10;1.00;;;;;;6124517;23;20193;-87
2022/04/07 03:16:05;;;;;;;9.00;5.10;;;8.10;1.00;;;;;;6124803;23;20207;-87
2022/04/07 03:18:33;;;;;;;10.10;4.60;;;8.10;1.00;;;;;;6206748;23;20178;-87
2022/04/07 03:21:00;;;;;;;12.07;4.90;;;8.10;1.00;;;;;;6216503;23;20171;-87
2022/04/07 03:23:27;;;;;;;9.37;5.30;;;8.10;1.00;;;;;;6216802;23;20175;-88
2022/04/07 03:25:54;;;;;;;10.23;5.40;;;8.20;1.00;;;;;;6216302;23;20193;-87
2022/04/07 03:28:46;;;;;;;9.27;4.63;;;8.20;1.00;;;;;;6229893;23;20157;-89
2022/04/07 03:34:37;;;;;;;7.73;4.30;;;8.30;1.00;;;;;;6240624;23;20157;-90
2022/04/07 03:47:09;;;;;;;5.60;3.90;;;8.60;1.00;;;;;;6089968;23;20202;-88
2022/04/07 03:55:30;;;;;;;7.43;4.73;;;8.60;1.00;;;;;;6066358;23;20245;-87
2022/04/07 03:57:57;;;;;;;7.23;4.97;;;8.60;1.00;;;;;;6066062;23;20179;-88
2022/04/07 04:00:27;;;;;;;9.27;5.27;;;8.70;1.00;;;;;;6072544;23;20254;-87
2022/04/07 04:17:50;;;;;;;13.13;5.53;;;8.60;1.00;;;;;;6223404;23;20207;-90
2022/04/07 04:23:41;;;;;;;9.30;4.60;;;8.50;1.00;;;;;;6239051;23;20170;-88
2022/04/07 04:26:21;;;;;;;7.13;4.70;;;8.50;1.00;;;;;;6241049;23;20167;-89
2022/04/07 04:29:03;;;;;;;9.67;5.37;;;8.40;1.00;;;;;;6237133;23;20564;-88
2022/04/07 04:31:44;;;;;;;11.70;4.67;;;8.40;1.00;;;;;;6236380;23;20160;-90
2022/04/07 04:34:12;;;;;;;8.50;4.77;;;8.50;1.00;;;;;;6230122;23;20187;-87
2022/04/07 04:39:42;;;;;;;12.10;5.10;;;8.60;1.00;;;;;;6208749;23;20167;-89
2022/04/07 04:42:43;;;;;;;8.20;4.80;;;8.60;1.00;;;;;;6237781;23;20203;-91
2022/04/07 04:45:11;;;;;;;6.80;4.67;;;8.70;1.00;;;;;;6211013;23;20187;-89
2022/04/07 04:47:45;;;;;;;8.37;4.87;;;8.70;1.00;;;;;;6240129;23;20156;-89
2022/04/07 04:50:27;;;;;;;9.07;4.57;;;8.80;1.00;;;;;;6238080;23;20171;-92
2022/04/07 04:53:17;;;;;;;8.37;4.53;;;8.80;1.00;;;;;;6237856;23;20525;-89
2022/04/07 04:55:47;;;;;;;7.87;4.57;;;8.80;1.00;;;;;;6237214;23;20150;-91
2022/04/07 04:58:15;;;;;;;8.63;5.30;;;8.80;1.00;;;;;;6237424;23;20161;-87
2022/04/07 05:03:39;;;;;;;12.73;5.20;;;8.90;1.00;;;;;;6223989;23;20200;-88
2022/04/07 05:06:12;;;;;;;7.17;3.93;;;9.00;1.00;;;;;;6234166;23;20200;-88
2022/04/07 05:08:40;;;;;;;16.90;5.00;;;9.00;1.00;;;;;;6237135;23;20161;-87
2022/04/07 05:11:24;;;;;;;12.73;6.23;;;9.10;1.00;;;;;;6238431;23;20224;-91
2022/04/07 05:14:02;;;;;;;7.37;4.73;;;9.20;1.00;;;;;;6234641;23;20161;-91
2022/04/07 05:16:40;;;;;;;8.17;4.50;;;9.40;1.00;;;;;;6238110;23;20168;-89
2022/04/07 05:23:07;;;;;;;9.80;4.87;;;9.90;1.00;;;;;;6234310;23;20171;-91
2022/04/07 05:25:51;;;;;;;8.33;4.93;;;10.60;1.00;;;;;;6239063;23;20240;-90
2022/04/07 05:31:13;;;;;;;6.93;4.07;;;11.40;99.90;;;;;;6095168;23;20163;-91
2022/04/07 05:33:53;;;;;;;5.13;3.20;;;11.70;99.90;;;;;;6116898;23;20166;-91
2022/04/07 05:36:36;;;;;;;6.70;3.70;;;12.20;99.90;;;;;;6119092;23;20168;-91
2022/04/07 05:42:48;;;;;;;5.93;3.93;;;14.00;99.90;;;;;;6032292;23;20274;-91
2022/04/07 05:45:42;;;;;;;5.70;3.20;;;14.60;89.00;;;;;;6032602;23;20223;-92
2022/04/07 05:48:26;;;;;;;5.50;3.50;;;15.20;12.30;;;;;;6034170;23;20224;-94
2022/04/07 05:50:56;;;;;;;3.83;2.78;;;15.70;1.00;;;;;;6027997;23;20189;-92
2022/04/07 05:56:38;;;;;;;19.20;10.23;;;16.30;1.00;;;;;;6079949;23;20227;-90
2022/04/07 05:59:34;;;;;;;7.60;4.60;;;16.40;1.00;;;;;;6147780;23;20325;-90
2022/04/07 06:02:21;;;;;;;6.50;4.53;;;16.50;1.00;;;;;;6150390;23;20170;-92
2022/04/07 06:11:09;;;;;;;5.68;3.78;;;16.60;1.00;;;;;;6137421;23;20176;-92
2022/04/07 06:13:38;;;;;;;5.63;3.78;;;17.10;1.00;;;;;;6126101;23;20231;-88
2022/04/07 06:16:15;;;;;;;5.00;3.22;;;16.90;1.00;;;;;;6142458;23;20167;-89
2022/04/07 06:18:43;;;;;;;7.60;4.05;;;16.50;1.00;;;;;;6147498;23;20171;-91
2022/04/07 06:22:07;;;;;;;7.03;3.42;;;16.10;1.00;;;;;;6145631;23;20179;-92
2022/04/07 06:27:34;;;;;;;7.72;3.90;;;16.30;1.00;;;;;;6144475;23;20170;-89
2022/04/07 06:30:15;;;;;;;4.55;3.63;;;17.10;1.00;;;;;;6141358;23;20160;-91
2022/04/07 06:33:27;;;;;;;5.43;3.50;;;17.60;1.00;;;;;;6228016;23;20157;-91
2022/04/07 06:36:04;;;;;;;9.05;3.38;;;17.70;1.00;;;;;;6239346;23;20169;-87
2022/04/07 06:38:35;;;;;;;4.97;2.70;;;17.10;1.00;;;;;;6235196;23;20171;-88
2022/04/07 06:41:09;;;;;;;6.72;4.13;;;16.60;1.00;;;;;;6239470;23;20164;-90
2022/04/07 06:46:26;;;;;;;6.03;3.60;;;16.00;1.00;;;;;;6233577;23;20195;-88
2022/04/07 06:48:55;;;;;;;3.35;2.38;;;15.50;1.00;;;;;;6239587;23;20175;-87
2022/04/07 06:51:35;;;;;;;4.25;2.80;;;15.40;1.00;;;;;;6241058;23;20171;-90
2022/04/07 07:03:22;;;;;;;4.45;3.15;;;17.10;1.00;;;;;;6223149;23;20650;-92
2022/04/07 07:09:17;;;;;;;5.22;3.00;;;17.40;1.00;;;;;;6239141;23;20216;-87
2022/04/07 07:11:58;;;;;;;10.65;3.70;;;17.50;1.00;;;;;;6242487;23;20226;-90
2022/04/07 07:20:50;;;;;;;4.38;3.10;;;17.30;1.00;;;;;;6233353;23;20173;-88
2022/04/07 07:23:32;;;;;;;7.05;4.68;;;17.50;1.00;;;;;;6215738;23;20161;-87
2022/04/07 07:26:12;;;;;;;3.10;2.58;;;17.80;1.00;;;;;;6236269;23;20196;-88
2022/04/07 07:29:00;;;;;;;9.93;8.15;;;18.10;1.00;;;;;;6192871;23;20186;-90
2022/04/07 07:31:35;;;;;;;3.33;2.20;;;18.60;1.00;;;;;;6232850;23;20134;-90
2022/04/07 07:34:26;;;;;;;3.28;2.33;;;19.10;1.00;;;;;;6233699;23;20133;-87
2022/04/07 07:39:51;;;;;;;3.22;2.28;;;18.00;1.00;;;;;;6236338;23;20152;-92
2022/04/07 07:43:03;;;;;;;9.32;2.70;;;17.70;1.00;;;;;;6230541;23;20188;-89
2022/04/07 07:45:52;;;;;;;3.15;2.22;;;17.60;1.00;;;;;;6180069;23;20174;-86
2022/04/07 07:48:24;;;;;;;3.22;2.25;;;17.20;1.00;;;;;;6177583;23;20169;-93
2022/04/07 07:50:53;;;;;;;25.65;4.45;;;17.10;1.00;;;;;;6170164;23;20166;-90
2022/04/07 07:53:55;;;;;;;4.68;2.90;;;17.50;1.00;;;;;;6173983;23;20162;-89
2022/04/07 07:56:26;;;;;;;9.95;2.92;;;18.00;1.00;;;;;;6106031;23;20166;-90
2022/04/07 07:59:02;;;;;;;2.60;2.40;;;18.40;1.00;;;;;;6116998;23;20702;-90
2022/04/07 08:02:03;;;;;;;3.70;2.15;;;18.40;1.00;;;;;;6109148;23;20225;-89
2022/04/07 08:04:31;;;;;;;4.82;2.10;;;18.20;1.00;;;;;;6126898;23;20207;-86
2022/04/07 08:07:05;;;;;;;5.80;2.38;;;17.90;1.00;;;;;;6148121;23;20195;-89
2022/04/07 08:12:38;;;;;;;3.58;2.58;;;17.10;1.00;;;;;;6136556;23;20189;-87
2022/04/07 08:15:06;;;;;;;3.25;2.42;;;16.70;1.00;;;;;;6130563;23;20596;-85
2022/04/07 08:17:33;;;;;;;4.35;2.97;;;16.20;1.00;;;;;;6135589;23;20169;-87
2022/04/07 08:20:00;;;;;;;3.95;3.17;;;15.90;1.00;;;;;;6155393;23;20184;-87
2022/04/07 08:22:39;;;;;;;5.22;2.40;;;15.90;1.00;;;;;;6236298;23;20203;-91
2022/04/07 08:25:06;;;;;;;3.40;2.22;;;16.30;1.00;;;;;;6237153;23;20161;-88
2022/04/07 08:27:35;;;;;;;2.03;1.73;;;17.00;1.00;;;;;;6233566;23;20213;-86
2022/04/07 08:30:10;;;;;;;3.20;2.00;;;17.60;1.00;;;;;;6235473;23;20219;-93
2022/04/07 08:32:51;;;;;;;4.47;2.17;;;17.90;1.00;;;;;;6235486;23;20199;-93
2022/04/07 08:35:30;;;;;;;3.45;2.30;;;17.90;1.00;;;;;;6238076;23;20229;-88
2022/04/07 08:37:57;;;;;;;3.40;2.20;;;17.80;1.00;;;;;;6236277;22;20141;-89
2022/04/07 08:40:24;;;;;;;3.90;2.40;;;18.10;1.00;;;;;;6239027;23;20166;-89
2022/04/07 08:43:01;;;;;;;5.22;2.20;;;18.50;1.00;;;;;;6233353;23;20539;-88
2022/04/07 08:48:47;;;;;;;4.68;2.42;;;18.20;1.00;;;;;;6232583;23;20161;-87
2022/04/07 08:51:14;;;;;;;2.92;1.90;;;17.50;1.00;;;;;;6225760;23;20176;-87
2022/04/07 08:53:45;;;;;;;2.55;2.20;;;17.10;1.00;;;;;;6226666;23;20230;-92
2022/04/07 08:56:23;;;;;;;5.00;2.17;;;16.60;1.00;;;;;;6223270;23;20179;-90
2022/04/07 08:59:12;;;;;;;2.55;1.90;;;16.20;1.00;;;;;;6228036;23;20187;-88
2022/04/07 09:01:39;;;;;;;2.97;2.20;;;15.80;1.00;;;;;;6228759;23;20247;-86
2022/04/07 09:04:06;;;;;;;2.77;1.63;;;15.60;1.00;;;;;;6219785;23;20743;-88
2022/04/07 09:06:41;;;;;;;3.43;1.77;;;15.50;1.00;;;;;;6228095;23;20218;-91
2022/04/07 09:09:14;;;;;;;2.65;1.55;;;15.60;1.00;;;;;;6218480;23;20196;-87
2022/04/07 09:14:38;;;;;;;10.30;2.55;;;16.50;1.00;;;;;;6236704;23;20169;-91
2022/04/07 09:17:14;;;;;;;2.15;1.60;;;17.30;1.00;;;;;;6239239;23;20165;-91
2022/04/07 09:19:59;;;;;;;2.00;1.20;;;17.90;1.00;;;;;;6224525;23;20164;-91
2022/04/07 09:22:31;;;;;;;2.67;1.40;;;18.40;1.00;;;;;;6223999;23;20149;-87
2022/04/07 09:25:04;;;;;;;2.17;1.50;;;18.80;1.00;;;;;;6234047;23;20171;-88
2022/04/07 09:27:31;;;;;;;2.65;1.60;;;18.50;1.00;;;;;;6226203;23;20200;-88
2022/04/07 09:30:00;;;;;;;3.35;1.40;;;18.00;1.00;;;;;;6226714;23;20179;-88
2022/04/07 09:32:46;;;;;;;3.70;1.73;;;17.50;1.00;;;;;;6233782;23;20197;-91
2022/04/07 09:35:14;;;;;;;1.90;1.48;;;17.40;1.00;;;;;;6236658;23;20153;-88
2022/04/07 09:37:42;;;;;;;1.90;1.60;;;17.40;1.00;;;;;;6221177;23;20196;-87
2022/04/07 09:40:12;;;;;;;4.05;1.50;;;17.10;1.00;;;;;;6223736;23;20176;-88
2022/04/07 09:42:41;;;;;;;2.72;1.00;;;16.80;1.00;;;;;;6229072;23;20498;-90
2022/04/07 09:45:12;;;;;;;1.38;0.98;;;16.60;1.00;;;;;;6232666;23;20168;-86
2022/04/07 09:47:54;;;;;;;1.30;1.10;;;16.60;1.00;;;;;;6228120;23;20200;-90
2022/04/07 09:50:33;;;;;;;4.07;1.60;;;16.50;1.00;;;;;;6221974;23;20164;-89
2022/04/07 09:53:08;;;;;;;2.92;1.60;;;16.50;1.00;;;;;;6227493;23;20139;-88
2022/04/07 09:55:52;;;;;;;1.23;1.00;;;16.50;1.00;;;;;;6227005;23;20158;-91
2022/04/07 10:01:27;;;;;;;3.30;1.60;;;16.00;1.00;;;;;;6197212;23;20157;-86
2022/04/07 10:04:01;;;;;;;2.43;1.70;;;15.80;1.00;;;;;;6224856;23;20198;-91
2022/04/07 10:06:30;;;;;;;1.15;1.05;;;15.50;1.00;;;;;;6215517;23;20163;-87
2022/04/07 10:09:18;;;;;;;1.47;1.20;;;15.30;1.00;;;;;;6229836;23;20176;-87
2022/04/07 10:11:55;;;;;;;2.30;1.20;;;15.00;1.00;;;;;;6226924;23;20155;-89
2022/04/07 10:14:22;;;;;;;2.30;1.73;;;14.80;1.00;;;;;;6224809;23;20210;-88
2022/04/07 10:16:51;;;;;;;2.33;1.40;;;14.70;1.00;;;;;;6235796;23;20174;-89
2022/04/07 10:19:43;;;;;;;2.47;1.33;;;14.60;1.00;;;;;;6228473;23;20230;-92
2022/04/07 10:22:41;;;;;;;2.03;1.40;;;14.50;1.00;;;;;;6213590;23;20159;-86
2022/04/07 10:25:24;;;;;;;2.73;1.67;;;14.50;1.00;;;;;;6233608;23;20160;-93
2022/04/07 10:28:05;;;;;;;3.53;1.50;;;14.50;1.00;;;;;;6229694;23;20389;-89
2022/04/07 10:34:07;;;;;;;1.50;1.20;;;15.50;1.00;;;;;;6234193;23;20514;-92
2022/04/07 10:36:39;;;;;;;1.75;1.45;;;16.00;1.00;;;;;;6212299;23;20184;-91
2022/04/07 10:39:26;;;;;;;1.63;1.00;;;16.30;1.00;;;;;;6236310;23;20172;-88
2022/04/07 10:42:41;;;;;;;1.35;1.13;;;16.40;1.00;;;;;;6235597;23;20136;-88
2022/04/07 10:45:45;;;;;;;3.72;1.30;;;16.30;1.00;;;;;;6144530;23;20173;-91
2022/04/07 10:48:29;;;;;;;1.73;1.08;;;16.10;1.00;;;;;;6137931;23;20180;-92
2022/04/07 10:51:09;;;;;;;2.50;1.50;;;15.80;1.00;;;;;;6141171;23;20177;-90
2022/04/07 10:53:39;;;;;;;3.90;1.50;;;15.50;1.00;;;;;;6142223;23;20509;-86
2022/04/07 10:56:08;;;;;;;1.50;1.00;;;15.30;1.00;;;;;;6124817;23;20240;-89
2022/04/07 10:58:39;;;;;;;1.57;1.10;;;15.10;1.00;;;;;;6124211;23;20554;-88
2022/04/07 11:01:25;;;;;;;1.83;1.03;;;14.90;1.00;;;;;;6126548;23;20179;-91
2022/04/07 11:04:28;;;;;;;2.13;1.10;;;14.80;1.00;;;;;;6187706;23;20207;-88
2022/04/07 11:07:24;;;;;;;3.87;1.20;;;14.60;1.00;;;;;;6231515;23;20235;-91
2022/04/07 11:10:16;;;;;;;1.93;1.20;;;14.70;1.00;;;;;;6205419;23;20180;-89
2022/04/07 11:12:45;;;;;;;4.97;1.60;;;14.90;1.00;;;;;;6227345;23;20172;-87
2022/04/07 11:15:50;;;;;;;3.03;1.60;;;15.00;1.00;;;;;;6232037;23;20240;-90
2022/04/07 11:21:35;;;;;;;4.20;1.60;;;15.00;1.00;;;;;;6229131;23;20205;-91
2022/04/07 11:24:23;;;;;;;1.77;1.53;;;15.00;1.00;;;;;;6231089;23;20161;-91
2022/04/07 11:32:23;;;;;;;3.13;1.30;;;14.50;1.00;;;;;;6236064;23;20171;-87
2022/04/07 11:35:18;;;;;;;2.50;1.70;;;14.40;1.00;;;;;;6239973;23;20550;-91
2022/04/07 11:37:45;;;;;;;2.00;1.27;;;14.30;1.00;;;;;;6175065;23;20167;-91
2022/04/07 11:43:33;;;;;;;2.50;1.80;;;14.30;1.00;;;;;;6233084;23;20194;-93
2022/04/07 11:46:01;;;;;;;3.53;1.50;;;14.40;1.00;;;;;;6236871;23;20157;-88
2022/04/07 11:48:42;;;;;;;3.13;1.50;;;14.30;1.00;;;;;;6234964;23;20200;-93
2022/04/07 11:51:37;;;;;;;10.03;6.03;;;14.30;1.00;;;;;;6230095;23;20194;-88
2022/04/07 11:57:24;;;;;;;4.37;1.30;;;14.20;1.00;;;;;;6206223;23;20170;-91
2022/04/07 12:00:11;;;;;;;1.10;1.00;;;14.20;1.00;;;;;;6229456;23;20147;-89
2022/04/07 12:02:47;;;;;;;2.80;1.60;;;14.20;1.00;;;;;;6241107;23;20142;-88
2022/04/07 12:05:21;;;;;;;3.87;2.40;;;14.30;1.00;;;;;;6256051;23;20199;-90
2022/04/07 12:07:48;;;;;;;2.67;2.30;;;14.50;1.00;;;;;;6241329;23;20198;-87
2022/04/07 12:10:21;;;;;;;3.67;2.90;;;14.60;1.00;;;;;;6269026;23;20230;-92
2022/04/07 12:13:29;;;;;;;3.03;1.10;;;14.70;1.00;;;;;;6270755;23;20135;-91
2022/04/07 12:16:16;;;;;;;1.43;0.93;;;14.90;1.00;;;;;;6267988;23;20178;-91
2022/04/07 12:18:58;;;;;;;2.10;1.00;;;15.30;1.00;;;;;;6269443;23;20166;-92
2022/04/07 12:24:38;;;;;;;6.30;1.83;;;15.40;1.00;;;;;;6266657;23;20176;-89
2022/04/07 12:27:37;;;;;;;3.63;1.70;;;15.40;1.00;;;;;;6270551;23;20602;-88
2022/04/07 12:30:43;;;;;;;2.87;1.70;;;15.40;1.00;;;;;;6243863;23;20166;-88
2022/04/07 12:34:03;;;;;;;1.20;0.73;;;15.40;1.00;;;;;;6265402;23;20174;-87
2022/04/07 12:36:43;;;;;;;2.50;1.60;;;15.50;1.00;;;;;;6268161;23;20202;-89
2022/04/07 12:39:17;;;;;;;2.77;1.40;;;15.60;1.00;;;;;;6239586;23;20194;-90
2022/04/07 12:41:54;;;;;;;1.77;1.10;;;15.60;1.00;;;;;;6264366;23;20195;-85
2022/04/07 12:44:45;;;;;;;1.52;0.90;;;15.70;1.00;;;;;;6242581;23;20157;-88
2022/04/07 12:47:27;;;;;;;1.30;0.80;;;15.90;1.00;;;;;;6266925;23;20158;-90
2022/04/07 12:50:40;;;;;;;4.63;3.10;;;16.10;1.00;;;;;;6270028;23;20180;-90
2022/04/07 12:53:41;;;;;;;2.33;1.20;;;16.20;1.00;;;;;;6127104;23;20175;-91
2022/04/07 12:56:27;;;;;;;1.83;0.90;;;16.30;1.00;;;;;;6171649;23;20171;-89
2022/04/07 13:02:14;;;;;;;3.30;0.82;;;16.40;1.00;;;;;;6174158;23;20208;-88
2022/04/07 13:05:03;;;;;;;4.80;1.02;;;16.30;1.00;;;;;;6125574;23;20183;-89
2022/04/07 13:11:11;;;;;;;3.20;1.17;;;15.90;1.00;;;;;;6078376;23;20209;-89
2022/04/07 13:13:41;;;;;;;2.43;0.77;;;15.90;1.00;;;;;;6085636;23;20176;-85
2022/04/07 13:16:19;;;;;;;2.97;0.90;;;15.60;1.00;;;;;;6086904;23;20187;-88
2022/04/07 13:18:46;;;;;;;6.40;1.10;;;15.50;1.00;;;;;;6081752;23;20242;-86
2022/04/07 13:21:25;;;;;;;3.10;1.10;;;15.30;1.00;;;;;;6082236;23;20177;-90
2022/04/07 13:24:16;;;;;;;2.03;1.20;;;15.20;1.00;;;;;;6104551;23;20188;-89
2022/04/07 13:26:44;;;;;;;2.93;1.17;;;15.00;1.00;;;;;;6116347;23;20155;-88
2022/04/07 13:29:36;;;;;;;4.57;1.73;;;14.80;1.00;;;;;;6112216;23;20229;-87
2022/04/07 13:32:22;;;;;;;5.00;1.80;;;14.70;1.00;;;;;;6112157;23;20174;-85
2022/04/07 13:35:18;;;;;;;6.60;1.73;;;14.50;1.00;;;;;;6116386;23;20613;-89
2022/04/07 13:44:08;;;;;;;7.90;1.70;;;13.90;1.00;;;;;;6220536;23;20157;-86
2022/04/07 13:49:45;;;;;;;11.43;6.27;;;13.40;1.00;;;;;;6218191;23;20265;-88
2022/04/07 13:52:42;;;;;;;12.23;4.67;;;13.20;79.20;;;;;;6228069;23;20187;-85
2022/04/07 13:55:23;;;;;;;7.20;2.23;;;13.00;86.40;;;;;;6231301;23;20611;-87
2022/04/07 14:00:46;;;;;;;6.80;2.30;;;12.70;99.90;;;;;;6228216;23;20180;-91
2022/04/07 14:03:14;;;;;;;14.23;6.07;;;12.50;99.90;;;;;;6228516;23;20163;-87
2022/04/07 14:05:42;;;;;;;7.97;2.97;;;12.40;99.90;;;;;;6217110;23;20197;-84
2022/04/07 14:08:14;;;;;;;3.47;2.10;;;12.20;99.90;;;;;;6223609;23;20314;-89
2022/04/07 14:10:51;;;;;;;;;;;12.20;99.90;;;;;;6219469;23;20210;-88
2022/04/07 14:13:20;;;;;;;4.83;2.00;;;12.10;1.00;;;;;;6217478;23;20356;-88
2022/04/07 14:15:49;;;;;;;9.27;3.07;;;12.00;1.00;;;;;;6218234;23;20189;-88
2022/04/07 14:18:21;;;;;;;5.03;2.53;;;12.00;1.00;;;;;;6216488;23;20228;-87
2022/04/07 14:20:49;;;;;;;4.67;2.00;;;11.90;1.00;;;;;;6216623;23;20531;-86
2022/04/07 14:23:17;;;;;;;2.37;1.80;;;11.80;1.00;;;;;;6216328;23;20168;-89
2022/04/07 14:25:44;;;;;;;4.63;1.97;;;11.90;1.00;;;;;;6224503;23;20173;-89
2022/04/07 14:28:11;;;;;;;3.27;1.50;;;11.90;1.00;;;;;;6214795;23;20563;-87
2022/04/07 14:30:38;;;;;;;2.10;1.50;;;12.00;1.00;;;;;;6217385;23;20652;-86
2022/04/07 14:33:07;;;;;;;2.70;1.73;;;12.00;1.00;;;;;;6218182;23;20169;-86
2022/04/07 14:35:34;;;;;;;3.37;1.30;;;12.00;1.00;;;;;;6216411;23;20165;-85
2022/04/07 14:38:01;;;;;;;5.37;4.47;;;12.00;1.00;;;;;;6216005;23;20698;-87
2022/04/07 14:40:29;;;;;;;3.97;3.57;;;12.00;1.00;;;;;;6216137;23;20174;-87
2022/04/07 14:42:56;;;;;;;2.27;2.00;;;11.90;1.00;;;;;;6214734;23;20169;-90
2022/04/07 14:45:23;;;;;;;;;;;11.90;1.00;;;;;;6220293;23;20167;-85
2022/04/07 14:47:50;;;;;;;1.10;1.00;;;11.90;1.00;;;;;;6217584;23;20157;-88
2022/04/07 14:50:23;;;;;;;1.50;1.03;;;12.00;1.00;;;;;;6217084;23;20683;-86
2022/04/07 14:52:50;;;;;;;1.30;1.20;;;12.00;1.00;;;;;;6218045;23;20166;-87
2022/04/07 14:55:18;;;;;;;4.83;2.10;;;12.00;1.00;;;;;;6217441;23;20171;-86
2022/04/07 14:57:45;;;;;;;4.03;2.77;;;12.10;1.00;;;;;;6214538;23;20182;-88
2022/04/07 15:00:13;;;;;;;4.30;3.20;;;12.10;1.00;;;;;;6221913;23;20170;-87
2022/04/07 15:02:44;;;;;;;5.33;3.63;;;12.20;1.00;;;;;;6219291;23;20170;-88
2022/04/07 15:05:11;;;;;;;3.73;2.27;;;12.20;1.00;;;;;;6218265;23;20202;-85
2022/04/07 15:07:40;;;;;;;3.70;1.57;;;12.30;1.00;;;;;;6220061;23;20170;-86
2022/04/07 15:10:07;;;;;;;2.37;1.03;;;12.30;1.00;;;;;;6223008;23;20173;-91
2022/04/07 15:12:35;;;;;;;4.20;2.20;;;12.30;1.00;;;;;;6216987;23;20234;-86
2022/04/07 15:15:05;;;;;;;3.13;1.40;;;12.30;1.00;;;;;;6217362;23;20170;-86
2022/04/07 15:17:32;;;;;;;5.07;3.60;;;12.30;1.00;;;;;;6217174;23;20209;-82
2022/04/07 15:19:59;;;;;;;34.70;25.50;;;12.30;1.00;;;;;;6220655;23;20166;-85
2022/04/07 15:22:27;;;;;;;27.93;19.17;;;12.30;1.00;;;;;;6221739;23;20153;-86
2022/04/07 15:24:55;;;;;;;16.33;12.63;;;12.20;1.00;;;;;;6221492;23;20193;-86
2022/04/07 15:27:27;;;;;;;4.43;2.63;;;12.20;1.00;;;;;;6219449;23;20174;-82
2022/04/07 15:30:00;;;;;;;6.60;3.13;;;12.10;1.00;;;;;;6216373;23;20503;-86
2022/04/07 15:32:28;;;;;;;6.53;3.83;;;11.90;1.00;;;;;;6219816;23;20165;-85
2022/04/07 15:35:01;;;;;;;8.43;4.40;;;11.70;1.00;;;;;;6221786;23;20199;-92
2022/04/07 15:37:29;;;;;;;7.00;3.90;;;11.60;99.90;;;;;;6226266;23;20161;-86
2022/04/07 15:39:57;;;;;;;4.93;3.47;;;11.50;99.90;;;;;;6216385;23;20238;-85
2022/04/07 15:42:24;;;;;;;6.73;4.73;;;11.40;1.00;;;;;;6218115;23;20553;-85
2022/04/07 15:44:51;;;;;;;17.07;11.93;;;11.30;1.00;;;;;;6214717;23;20169;-85
2022/04/07 15:47:18;;;;;;;16.40;12.83;;;11.20;1.00;;;;;;6217133;23;20169;-85
2022/04/07 15:49:46;;;;;;;17.83;15.30;;;11.10;1.00;;;;;;6215023;23;20197;-84
2022/04/07 15:52:17;;;;;;;4.90;4.27;;;11.10;1.00;;;;;;6216051;23;20169;-85
2022/04/07 15:54:43;;;;;;;19.00;13.17;;;11.10;1.00;;;;;;6219098;23;20662;-83
2022/04/07 15:57:12;;;;;;;5.70;4.47;;;11.10;1.00;;;;;;6216140;23;20173;-82
2022/04/07 15:59:39;;;;;;;8.00;5.90;;;11.00;93.70;;;;;;6220861;23;20169;-88
2022/04/07 16:02:06;;;;;;;7.83;5.60;;;11.00;99.90;;;;;;6218296;23;20173;-86
2022/04/07 16:04:33;;;;;;;25.80;10.20;;;11.00;99.90;;;;;;6216233;23;20061;-81
2022/04/07 16:07:01;;;;;;;17.10;7.43;;;10.80;1.00;;;;;;6222084;23;20440;-86
2022/04/07 16:09:33;;;;;;;;;;;10.30;99.90;;;;;;6218251;23;20196;-87
2022/04/07 16:12:00;;;;;;;23.00;11.90;;;9.90;99.90;;;;;;6226066;23;20363;-85
2022/04/07 16:14:29;;;;;;;9.40;5.13;;;9.50;1.00;;;;;;6218540;23;20171;-86
2022/04/07 16:17:05;;;;;;;18.93;9.33;;;9.30;1.00;;;;;;6235538;23;20181;-86
2022/04/07 16:19:32;;;;;;;21.13;10.50;;;9.00;1.00;;;;;;6231942;23;20183;-85
2022/04/07 16:21:59;;;;;;;15.90;7.20;;;8.80;1.00;;;;;;6215932;23;20165;-82
2022/04/07 16:24:26;;;;;;;3.77;2.20;;;8.70;1.00;;;;;;6212127;23;20183;-80
2022/04/07 16:26:53;;;;;;;10.57;5.23;;;8.50;1.00;;;;;;6216534;23;20548;-81
2022/04/07 16:29:21;;;;;;;6.10;3.03;;;8.40;1.00;;;;;;6215830;23;20195;-82
2022/04/07 16:31:50;;;;;;;3.97;1.83;;;8.30;35.70;;;;;;6215564;23;20625;-81
2022/04/07 16:34:17;;;;;;;2.53;1.30;;;8.30;99.90;;;;;;6215413;23;20167;-82
2022/04/07 16:36:45;;;;;;;3.70;2.30;;;8.30;99.90;;;;;;6216931;23;20171;-81
2022/04/07 16:39:15;;;;;;;6.93;3.87;;;8.20;99.90;;;;;;6218060;23;20696;-82
2022/04/07 16:41:42;;;;;;;6.67;3.60;;;8.20;1.00;;;;;;6219702;23;20156;-85
2022/04/07 16:44:09;;;;;;;5.07;3.67;;;8.20;1.00;;;;;;6221896;23;20247;-87
2022/04/07 16:46:41;;;;;;;4.83;3.40;;;8.10;1.00;;;;;;6225383;23;20177;-83
2022/04/07 16:49:11;;;;;;;9.23;5.80;;;8.10;1.00;;;;;;6219127;23;20189;-83
2022/04/07 16:51:38;;;;;;;7.07;3.93;;;8.10;1.00;;;;;;6219789;23;20195;-84
2022/04/07 16:54:05;;;;;;;4.37;2.30;;;8.20;99.90;;;;;;6220809;23;20171;-83
2022/04/07 16:56:32;;;;;;;12.03;5.37;;;8.20;99.90;;;;;;6225825;23;20168;-88
2022/04/07 16:58:59;;;;;;;13.40;5.77;;;8.20;99.90;;;;;;6216642;23;20556;-82
2022/04/07 17:01:26;;;;;;;10.40;4.87;;;8.20;99.90;;;;;;6221896;23;20647;-84
2022/04/07 17:03:54;;;;;;;6.53;3.50;;;8.10;99.90;;;;;;6219656;23;20190;-83
2022/04/07 17:06:23;;;;;;;7.07;3.40;;;8.10;99.90;;;;;;6217606;23;20172;-84
2022/04/07 17:08:51;;;;;;;7.67;4.37;;;8.10;99.90;;;;;;6218303;23;20198;-84
2022/04/07 17:11:21;;;;;;;5.33;3.00;;;8.10;1.00;;;;;;6216996;23;20179;-85
2022/04/07 17:13:48;;;;;;;7.60;3.90;;;8.10;1.00;;;;;;6220582;23;20169;-84
2022/04/07 17:16:16;;;;;;;5.83;3.73;;;8.10;1.00;;;;;;6219291;23;20299;-83
2022/04/07 17:18:44;;;;;;;11.00;4.93;;;8.00;1.00;;;;;;6215488;23;20177;-83
2022/04/07 17:21:11;;;;;;;6.17;4.00;;;8.00;1.00;;;;;;6224027;23;20175;-84
2022/04/07 17:23:45;;;;;;;4.00;2.33;;;8.00;1.00;;;;;;6222990;23;20171;-90